sensor_id;sensor_type;location;lat;lon;timestamp;P1;durP1;ratioP1;P2;durP2;ratioP2
19057;SDS011;9662;53.612;9.914;2022-07-23T00:01:33;117.03;;;107.93;;
19057;SDS011;9662;53.612;9.914;2022-07-23T00:04:01;124.38;;;114.72;;
19057;SDS011;9662;53.612;9.914;2022-07-23T00:06:30;120.30;;;110.50;;
19057;SDS011;9662;53.612;9.914;2022-07-23T00:08:58;137.50;;;126.22;;
19057;SDS011;9662;53.612;9.914;2022-07-23T00:11:28;110.13;;;101.55;;
19057;SDS011;9662;53.612;9.914;2022-07-23T00:13:56;99.88;;;92.38;;
19057;SDS011;9662;53.612;9.914;2022-07-23T00:16:24;136.90;;;125.60;;
19057;SDS011;9662;53.612;9.914;2022-07-23T00:18:52;92.32;;;85.40;;
19057;SDS011;9662;53.612;9.914;2022-07-23T00:21:20;130.30;;;119.72;;
19057;SDS011;9662;53.612;9.914;2022-07-23T00:23:48;123.30;;;113.55;;
19057;SDS011;9662;53.612;9.914;2022-07-23T00:26:16;95.38;;;88.07;;
19057;SDS011;9662;53.612;9.914;2022-07-23T00:28:46;94.72;;;87.03;;
19057;SDS011;9662;53.612;9.914;2022-07-23T00:31:14;68.13;;;62.90;;
19057;SDS011;9662;53.612;9.914;2022-07-23T00:33:42;81.00;;;74.95;;
19057;SDS011;9662;53.612;9.914;2022-07-23T00:36:10;90.97;;;84.00;;
19057;SDS011;9662;53.612;9.914;2022-07-23T00:38:38;64.17;;;59.37;;
19057;SDS011;9662;53.612;9.914;2022-07-23T00:41:06;122.93;;;113.38;;
19057;SDS011;9662;53.612;9.914;2022-07-23T00:43:34;102.25;;;94.35;;
19057;SDS011;9662;53.612;9.914;2022-07-23T00:46:03;83.78;;;77.53;;
19057;SDS011;9662;53.612;9.914;2022-07-23T00:48:30;58.95;;;54.58;;
19057;SDS011;9662;53.612;9.914;2022-07-23T00:50:56;110.23;;;101.60;;
19057;SDS011;9662;53.612;9.914;2022-07-23T00:53:23;130.68;;;120.43;;
19057;SDS011;9662;53.612;9.914;2022-07-23T00:55:50;117.60;;;108.65;;
19057;SDS011;9662;53.612;9.914;2022-07-23T00:58:18;115.30;;;106.40;;
19057;SDS011;9662;53.612;9.914;2022-07-23T01:00:45;127.88;;;117.93;;
19057;SDS011;9662;53.612;9.914;2022-07-23T01:03:13;131.70;;;121.25;;
19057;SDS011;9662;53.612;9.914;2022-07-23T01:05:40;117.18;;;107.97;;
19057;SDS011;9662;53.612;9.914;2022-07-23T01:08:07;95.25;;;88.13;;
19057;SDS011;9662;53.612;9.914;2022-07-23T01:10:34;99.30;;;91.72;;
19057;SDS011;9662;53.612;9.914;2022-07-23T01:13:01;105.60;;;97.65;;
19057;SDS011;9662;53.612;9.914;2022-07-23T01:15:29;100.95;;;92.85;;
19057;SDS011;9662;53.612;9.914;2022-07-23T01:17:57;113.50;;;104.50;;
19057;SDS011;9662;53.612;9.914;2022-07-23T01:20:25;96.38;;;89.03;;
19057;SDS011;9662;53.612;9.914;2022-07-23T01:22:54;122.40;;;113.13;;
19057;SDS011;9662;53.612;9.914;2022-07-23T01:25:21;94.03;;;87.00;;
19057;SDS011;9662;53.612;9.914;2022-07-23T01:27:48;102.40;;;94.82;;
19057;SDS011;9662;53.612;9.914;2022-07-23T01:30:15;145.60;;;134.05;;
19057;SDS011;9662;53.612;9.914;2022-07-23T01:32:42;128.70;;;118.13;;
19057;SDS011;9662;53.612;9.914;2022-07-23T01:35:08;121.57;;;112.30;;
19057;SDS011;9662;53.612;9.914;2022-07-23T01:37:35;130.63;;;120.45;;
19057;SDS011;9662;53.612;9.914;2022-07-23T01:40:05;103.60;;;95.70;;
19057;SDS011;9662;53.612;9.914;2022-07-23T01:42:32;141.47;;;130.43;;
19057;SDS011;9662;53.612;9.914;2022-07-23T01:44:59;156.10;;;143.32;;
19057;SDS011;9662;53.612;9.914;2022-07-23T01:47:26;132.13;;;121.85;;
19057;SDS011;9662;53.612;9.914;2022-07-23T01:49:53;143.15;;;131.63;;
19057;SDS011;9662;53.612;9.914;2022-07-23T01:52:20;162.10;;;148.73;;
19057;SDS011;9662;53.612;9.914;2022-07-23T01:54:46;111.97;;;103.43;;
19057;SDS011;9662;53.612;9.914;2022-07-23T01:57:14;121.78;;;112.30;;
19057;SDS011;9662;53.612;9.914;2022-07-23T01:59:41;115.57;;;106.45;;
19057;SDS011;9662;53.612;9.914;2022-07-23T02:02:08;117.53;;;108.45;;
19057;SDS011;9662;53.612;9.914;2022-07-23T02:04:35;143.75;;;132.05;;
19057;SDS011;9662;53.612;9.914;2022-07-23T02:07:02;147.80;;;135.93;;
19057;SDS011;9662;53.612;9.914;2022-07-23T02:09:29;122.82;;;113.25;;
19057;SDS011;9662;53.612;9.914;2022-07-23T02:11:57;129.77;;;119.70;;
19057;SDS011;9662;53.612;9.914;2022-07-23T02:14:25;140.77;;;129.68;;
19057;SDS011;9662;53.612;9.914;2022-07-23T02:16:52;130.43;;;120.38;;
19057;SDS011;9662;53.612;9.914;2022-07-23T02:19:19;122.25;;;112.68;;
19057;SDS011;9662;53.612;9.914;2022-07-23T02:21:46;119.88;;;110.80;;
19057;SDS011;9662;53.612;9.914;2022-07-23T02:24:13;139.30;;;128.10;;
19057;SDS011;9662;53.612;9.914;2022-07-23T02:26:40;155.63;;;143.00;;
19057;SDS011;9662;53.612;9.914;2022-07-23T02:29:07;135.37;;;124.40;;
19057;SDS011;9662;53.612;9.914;2022-07-23T02:31:35;143.70;;;132.32;;
19057;SDS011;9662;53.612;9.914;2022-07-23T02:34:02;141.07;;;129.80;;
19057;SDS011;9662;53.612;9.914;2022-07-23T02:36:29;151.20;;;138.90;;
19057;SDS011;9662;53.612;9.914;2022-07-23T02:38:56;152.90;;;140.70;;
19057;SDS011;9662;53.612;9.914;2022-07-23T02:41:23;128.93;;;118.55;;
19057;SDS011;9662;53.612;9.914;2022-07-23T02:43:50;122.67;;;113.10;;
19057;SDS011;9662;53.612;9.914;2022-07-23T02:46:16;162.93;;;149.75;;
19057;SDS011;9662;53.612;9.914;2022-07-23T02:48:44;141.18;;;130.20;;
19057;SDS011;9662;53.612;9.914;2022-07-23T02:51:11;140.10;;;129.07;;
19057;SDS011;9662;53.612;9.914;2022-07-23T02:53:38;152.13;;;139.95;;
19057;SDS011;9662;53.612;9.914;2022-07-23T02:56:05;149.80;;;137.87;;
19057;SDS011;9662;53.612;9.914;2022-07-23T02:58:32;151.17;;;139.17;;
19057;SDS011;9662;53.612;9.914;2022-07-23T03:00:59;138.25;;;127.25;;
19057;SDS011;9662;53.612;9.914;2022-07-23T03:03:26;168.15;;;154.40;;
19057;SDS011;9662;53.612;9.914;2022-07-23T03:05:54;130.98;;;120.80;;
19057;SDS011;9662;53.612;9.914;2022-07-23T03:08:20;145.55;;;133.77;;
19057;SDS011;9662;53.612;9.914;2022-07-23T03:10:47;156.25;;;143.68;;
19057;SDS011;9662;53.612;9.914;2022-07-23T03:13:14;162.80;;;149.70;;
19057;SDS011;9662;53.612;9.914;2022-07-23T03:15:41;161.45;;;148.25;;
19057;SDS011;9662;53.612;9.914;2022-07-23T03:18:08;150.37;;;138.23;;
19057;SDS011;9662;53.612;9.914;2022-07-23T03:20:34;143.10;;;131.80;;
19057;SDS011;9662;53.612;9.914;2022-07-23T03:23:03;91.03;;;84.13;;
19057;SDS011;9662;53.612;9.914;2022-07-23T03:25:29;114.22;;;105.20;;
19057;SDS011;9662;53.612;9.914;2022-07-23T03:27:56;128.68;;;118.53;;
19057;SDS011;9662;53.612;9.914;2022-07-23T03:30:23;126.63;;;116.72;;
19057;SDS011;9662;53.612;9.914;2022-07-23T03:32:50;136.73;;;125.82;;
19057;SDS011;9662;53.612;9.914;2022-07-23T03:35:16;97.28;;;89.85;;
19057;SDS011;9662;53.612;9.914;2022-07-23T03:37:43;133.88;;;122.93;;
19057;SDS011;9662;53.612;9.914;2022-07-23T03:40:11;132.82;;;122.40;;
19057;SDS011;9662;53.612;9.914;2022-07-23T03:42:38;134.87;;;124.30;;
19057;SDS011;9662;53.612;9.914;2022-07-23T03:45:07;128.45;;;118.47;;
19057;SDS011;9662;53.612;9.914;2022-07-23T03:47:34;121.05;;;111.70;;
19057;SDS011;9662;53.612;9.914;2022-07-23T03:50:01;154.73;;;142.27;;
19057;SDS011;9662;53.612;9.914;2022-07-23T03:52:28;165.63;;;151.60;;
19057;SDS011;9662;53.612;9.914;2022-07-23T03:54:55;155.80;;;143.25;;
19057;SDS011;9662;53.612;9.914;2022-07-23T03:57:23;155.10;;;142.70;;
19057;SDS011;9662;53.612;9.914;2022-07-23T03:59:50;177.98;;;163.23;;
19057;SDS011;9662;53.612;9.914;2022-07-23T04:02:17;140.50;;;129.45;;
19057;SDS011;9662;53.612;9.914;2022-07-23T04:04:44;157.27;;;144.10;;
19057;SDS011;9662;53.612;9.914;2022-07-23T04:07:11;152.38;;;140.02;;
19057;SDS011;9662;53.612;9.914;2022-07-23T04:09:38;174.45;;;159.93;;
19057;SDS011;9662;53.612;9.914;2022-07-23T04:12:07;176.70;;;162.05;;
19057;SDS011;9662;53.612;9.914;2022-07-23T04:14:35;143.40;;;132.02;;
19057;SDS011;9662;53.612;9.914;2022-07-23T04:17:02;148.90;;;136.93;;
19057;SDS011;9662;53.612;9.914;2022-07-23T04:19:29;161.02;;;147.48;;
19057;SDS011;9662;53.612;9.914;2022-07-23T04:21:56;151.25;;;138.77;;
19057;SDS011;9662;53.612;9.914;2022-07-23T04:24:23;141.35;;;130.07;;
19057;SDS011;9662;53.612;9.914;2022-07-23T04:26:50;187.23;;;170.57;;
19057;SDS011;9662;53.612;9.914;2022-07-23T04:29:16;138.85;;;127.90;;
19057;SDS011;9662;53.612;9.914;2022-07-23T04:31:44;151.43;;;139.20;;
19057;SDS011;9662;53.612;9.914;2022-07-23T04:34:11;134.52;;;123.93;;
19057;SDS011;9662;53.612;9.914;2022-07-23T04:36:38;130.02;;;119.63;;
19057;SDS011;9662;53.612;9.914;2022-07-23T04:39:05;103.65;;;95.60;;
19057;SDS011;9662;53.612;9.914;2022-07-23T04:41:31;142.15;;;130.88;;
19057;SDS011;9662;53.612;9.914;2022-07-23T04:43:59;140.10;;;129.07;;
19057;SDS011;9662;53.612;9.914;2022-07-23T04:46:26;129.33;;;119.27;;
19057;SDS011;9662;53.612;9.914;2022-07-23T04:48:54;127.13;;;117.35;;
19057;SDS011;9662;53.612;9.914;2022-07-23T04:51:21;180.68;;;165.73;;
19057;SDS011;9662;53.612;9.914;2022-07-23T04:53:48;192.30;;;175.88;;
19057;SDS011;9662;53.612;9.914;2022-07-23T04:56:15;198.85;;;182.30;;
19057;SDS011;9662;53.612;9.914;2022-07-23T04:58:42;151.95;;;139.45;;
19057;SDS011;9662;53.612;9.914;2022-07-23T05:01:08;116.55;;;107.57;;
19057;SDS011;9662;53.612;9.914;2022-07-23T05:03:35;174.30;;;160.27;;
19057;SDS011;9662;53.612;9.914;2022-07-23T05:06:03;129.18;;;119.13;;
19057;SDS011;9662;53.612;9.914;2022-07-23T05:08:30;204.25;;;187.25;;
19057;SDS011;9662;53.612;9.914;2022-07-23T05:10:57;186.30;;;170.95;;
19057;SDS011;9662;53.612;9.914;2022-07-23T05:13:24;201.60;;;184.82;;
19057;SDS011;9662;53.612;9.914;2022-07-23T05:15:51;198.50;;;181.55;;
19057;SDS011;9662;53.612;9.914;2022-07-23T05:18:17;164.57;;;151.07;;
19057;SDS011;9662;53.612;9.914;2022-07-23T05:20:44;156.15;;;143.63;;
19057;SDS011;9662;53.612;9.914;2022-07-23T05:23:12;148.43;;;136.50;;
19057;SDS011;9662;53.612;9.914;2022-07-23T05:25:39;174.27;;;160.10;;
19057;SDS011;9662;53.612;9.914;2022-07-23T05:28:06;163.13;;;149.50;;
19057;SDS011;9662;53.612;9.914;2022-07-23T05:30:33;172.45;;;157.98;;
19057;SDS011;9662;53.612;9.914;2022-07-23T05:33:00;177.52;;;162.77;;
19057;SDS011;9662;53.612;9.914;2022-07-23T05:35:27;177.73;;;163.18;;
19057;SDS011;9662;53.612;9.914;2022-07-23T05:37:53;179.88;;;165.05;;
19057;SDS011;9662;53.612;9.914;2022-07-23T05:40:21;159.18;;;146.35;;
19057;SDS011;9662;53.612;9.914;2022-07-23T05:42:49;162.55;;;149.40;;
19057;SDS011;9662;53.612;9.914;2022-07-23T05:45:15;119.43;;;110.25;;
19057;SDS011;9662;53.612;9.914;2022-07-23T05:47:42;157.18;;;144.52;;
19057;SDS011;9662;53.612;9.914;2022-07-23T05:50:11;150.88;;;138.45;;
19057;SDS011;9662;53.612;9.914;2022-07-23T05:52:38;144.55;;;133.02;;
19057;SDS011;9662;53.612;9.914;2022-07-23T05:55:05;83.65;;;77.38;;
19057;SDS011;9662;53.612;9.914;2022-07-23T05:57:34;129.50;;;119.22;;
19057;SDS011;9662;53.612;9.914;2022-07-23T06:00:02;121.70;;;112.20;;
19057;SDS011;9662;53.612;9.914;2022-07-23T06:02:30;146.38;;;134.45;;
19057;SDS011;9662;53.612;9.914;2022-07-23T06:04:56;142.50;;;131.20;;
19057;SDS011;9662;53.612;9.914;2022-07-23T06:07:23;92.68;;;85.63;;
19057;SDS011;9662;53.612;9.914;2022-07-23T06:09:50;70.40;;;65.22;;
19057;SDS011;9662;53.612;9.914;2022-07-23T06:12:17;67.00;;;62.25;;
19057;SDS011;9662;53.612;9.914;2022-07-23T06:14:45;127.72;;;117.40;;
19057;SDS011;9662;53.612;9.914;2022-07-23T06:17:14;150.13;;;137.93;;
19057;SDS011;9662;53.612;9.914;2022-07-23T06:19:41;139.40;;;128.05;;
19057;SDS011;9662;53.612;9.914;2022-07-23T06:22:08;131.95;;;121.45;;
19057;SDS011;9662;53.612;9.914;2022-07-23T06:24:35;164.32;;;150.60;;
19057;SDS011;9662;53.612;9.914;2022-07-23T06:27:02;157.40;;;144.53;;
19057;SDS011;9662;53.612;9.914;2022-07-23T06:29:29;119.10;;;109.83;;
19057;SDS011;9662;53.612;9.914;2022-07-23T06:31:57;118.30;;;109.13;;
19057;SDS011;9662;53.612;9.914;2022-07-23T06:34:24;145.63;;;133.55;;
19057;SDS011;9662;53.612;9.914;2022-07-23T06:36:51;140.85;;;129.40;;
19057;SDS011;9662;53.612;9.914;2022-07-23T06:39:18;68.78;;;63.67;;
19057;SDS011;9662;53.612;9.914;2022-07-23T06:41:45;98.45;;;90.57;;
19057;SDS011;9662;53.612;9.914;2022-07-23T06:44:12;94.10;;;86.82;;
19057;SDS011;9662;53.612;9.914;2022-07-23T06:46:39;55.58;;;51.40;;
19057;SDS011;9662;53.612;9.914;2022-07-23T06:49:08;79.25;;;73.43;;
19057;SDS011;9662;53.612;9.914;2022-07-23T06:51:35;94.82;;;87.50;;
19057;SDS011;9662;53.612;9.914;2022-07-23T06:54:02;59.97;;;55.63;;
19057;SDS011;9662;53.612;9.914;2022-07-23T06:56:29;62.03;;;57.50;;
19057;SDS011;9662;53.612;9.914;2022-07-23T06:58:56;29.27;;;27.70;;
19057;SDS011;9662;53.612;9.914;2022-07-23T07:01:24;71.93;;;66.65;;
19057;SDS011;9662;53.612;9.914;2022-07-23T07:03:52;33.58;;;30.83;;
19057;SDS011;9662;53.612;9.914;2022-07-23T07:06:21;34.13;;;31.80;;
19057;SDS011;9662;53.612;9.914;2022-07-23T07:08:48;58.38;;;54.10;;
19057;SDS011;9662;53.612;9.914;2022-07-23T07:11:15;21.23;;;20.10;;
19057;SDS011;9662;53.612;9.914;2022-07-23T07:13:42;26.60;;;25.17;;
19057;SDS011;9662;53.612;9.914;2022-07-23T07:16:09;25.60;;;24.27;;
19057;SDS011;9662;53.612;9.914;2022-07-23T07:18:35;22.15;;;21.10;;
19057;SDS011;9662;53.612;9.914;2022-07-23T07:21:02;42.17;;;39.30;;
19057;SDS011;9662;53.612;9.914;2022-07-23T07:23:31;36.70;;;34.25;;
19057;SDS011;9662;53.612;9.914;2022-07-23T07:25:58;22.85;;;21.73;;
19057;SDS011;9662;53.612;9.914;2022-07-23T07:28:26;44.85;;;41.92;;
19057;SDS011;9662;53.612;9.914;2022-07-23T07:30:55;47.85;;;44.42;;
19057;SDS011;9662;53.612;9.914;2022-07-23T07:33:23;52.47;;;48.70;;
19057;SDS011;9662;53.612;9.914;2022-07-23T07:35:50;44.35;;;41.50;;
19057;SDS011;9662;53.612;9.914;2022-07-23T07:38:18;49.15;;;45.75;;
19057;SDS011;9662;53.612;9.914;2022-07-23T07:40:47;44.25;;;41.38;;
19057;SDS011;9662;53.612;9.914;2022-07-23T07:43:15;35.15;;;32.92;;
19057;SDS011;9662;53.612;9.914;2022-07-23T07:45:43;39.95;;;37.17;;
19057;SDS011;9662;53.612;9.914;2022-07-23T07:48:11;26.15;;;24.40;;
19057;SDS011;9662;53.612;9.914;2022-07-23T07:50:39;19.30;;;18.43;;
19057;SDS011;9662;53.612;9.914;2022-07-23T07:53:07;25.50;;;23.98;;
19057;SDS011;9662;53.612;9.914;2022-07-23T07:55:35;35.22;;;33.03;;
19057;SDS011;9662;53.612;9.914;2022-07-23T07:58:04;19.75;;;18.92;;
19057;SDS011;9662;53.612;9.914;2022-07-23T08:00:33;19.10;;;18.30;;
19057;SDS011;9662;53.612;9.914;2022-07-23T08:03:01;28.35;;;26.75;;
19057;SDS011;9662;53.612;9.914;2022-07-23T08:05:29;26.92;;;25.20;;
19057;SDS011;9662;53.612;9.914;2022-07-23T08:07:58;30.63;;;28.70;;
19057;SDS011;9662;53.612;9.914;2022-07-23T08:10:27;26.73;;;25.33;;
19057;SDS011;9662;53.612;9.914;2022-07-23T08:12:56;15.77;;;15.30;;
19057;SDS011;9662;53.612;9.914;2022-07-23T08:15:27;20.25;;;19.48;;
19057;SDS011;9662;53.612;9.914;2022-07-23T08:17:57;43.10;;;40.33;;
19057;SDS011;9662;53.612;9.914;2022-07-23T08:20:25;24.45;;;22.98;;
19057;SDS011;9662;53.612;9.914;2022-07-23T08:22:54;34.47;;;32.37;;
19057;SDS011;9662;53.612;9.914;2022-07-23T08:25:24;16.42;;;15.77;;
19057;SDS011;9662;53.612;9.914;2022-07-23T08:27:52;20.17;;;19.37;;
19057;SDS011;9662;53.612;9.914;2022-07-23T08:30:21;19.45;;;18.50;;
19057;SDS011;9662;53.612;9.914;2022-07-23T08:32:52;30.30;;;28.60;;
19057;SDS011;9662;53.612;9.914;2022-07-23T08:35:21;17.90;;;17.20;;
19057;SDS011;9662;53.612;9.914;2022-07-23T08:37:50;18.23;;;17.33;;
19057;SDS011;9662;53.612;9.914;2022-07-23T08:40:18;17.10;;;16.40;;
19057;SDS011;9662;53.612;9.914;2022-07-23T08:42:47;34.80;;;32.70;;
19057;SDS011;9662;53.612;9.914;2022-07-23T08:45:16;25.05;;;23.42;;
19057;SDS011;9662;53.612;9.914;2022-07-23T08:47:48;39.47;;;36.88;;
19057;SDS011;9662;53.612;9.914;2022-07-23T08:50:43;19.55;;;18.55;;
19057;SDS011;9662;53.612;9.914;2022-07-23T08:53:55;21.35;;;20.10;;
19057;SDS011;9662;53.612;9.914;2022-07-23T08:57:09;22.92;;;21.83;;
19057;SDS011;9662;53.612;9.914;2022-07-23T09:00:21;29.58;;;27.77;;
19057;SDS011;9662;53.612;9.914;2022-07-23T09:03:33;32.03;;;30.08;;
19057;SDS011;9662;53.612;9.914;2022-07-23T09:06:45;42.05;;;39.05;;
19057;SDS011;9662;53.612;9.914;2022-07-23T09:10:06;26.88;;;25.33;;
19057;SDS011;9662;53.612;9.914;2022-07-23T09:13:22;29.90;;;28.00;;
19057;SDS011;9662;53.612;9.914;2022-07-23T09:16:36;39.45;;;36.70;;
19057;SDS011;9662;53.612;9.914;2022-07-23T09:19:42;74.97;;;69.22;;
19057;SDS011;9662;53.612;9.914;2022-07-23T09:22:20;100.57;;;92.27;;
19057;SDS011;9662;53.612;9.914;2022-07-23T09:25:34;89.28;;;82.15;;
19057;SDS011;9662;53.612;9.914;2022-07-23T09:28:50;76.43;;;70.60;;
19057;SDS011;9662;53.612;9.914;2022-07-23T09:32:02;108.18;;;99.55;;
19057;SDS011;9662;53.612;9.914;2022-07-23T09:35:13;85.97;;;79.38;;
19057;SDS011;9662;53.612;9.914;2022-07-23T09:38:26;81.72;;;75.43;;
19057;SDS011;9662;53.612;9.914;2022-07-23T09:41:37;81.95;;;75.63;;
19057;SDS011;9662;53.612;9.914;2022-07-23T09:44:49;52.08;;;48.38;;
19057;SDS011;9662;53.612;9.914;2022-07-23T09:48:10;56.08;;;52.10;;
19057;SDS011;9662;53.612;9.914;2022-07-23T09:51:22;57.08;;;52.88;;
19057;SDS011;9662;53.612;9.914;2022-07-23T09:54:09;52.30;;;48.65;;
19057;SDS011;9662;53.612;9.914;2022-07-23T09:57:06;70.47;;;65.27;;
19057;SDS011;9662;53.612;9.914;2022-07-23T10:00:06;62.42;;;57.60;;
19057;SDS011;9662;53.612;9.914;2022-07-23T10:03:16;57.80;;;53.65;;
19057;SDS011;9662;53.612;9.914;2022-07-23T10:06:27;57.08;;;52.58;;
19057;SDS011;9662;53.612;9.914;2022-07-23T10:09:00;63.42;;;58.72;;
19057;SDS011;9662;53.612;9.914;2022-07-23T10:11:41;43.10;;;40.33;;
19057;SDS011;9662;53.612;9.914;2022-07-23T10:14:37;69.38;;;64.30;;
19057;SDS011;9662;53.612;9.914;2022-07-23T10:17:30;57.45;;;53.33;;
19057;SDS011;9662;53.612;9.914;2022-07-23T10:20:03;62.70;;;58.10;;
19057;SDS011;9662;53.612;9.914;2022-07-23T10:23:10;86.97;;;80.20;;
19057;SDS011;9662;53.612;9.914;2022-07-23T10:26:24;83.22;;;76.53;;
19057;SDS011;9662;53.612;9.914;2022-07-23T10:29:16;92.03;;;84.75;;
19057;SDS011;9662;53.612;9.914;2022-07-23T10:31:54;67.18;;;62.15;;
19057;SDS011;9662;53.612;9.914;2022-07-23T10:34:27;109.38;;;100.50;;
19057;SDS011;9662;53.612;9.914;2022-07-23T10:37:01;106.95;;;98.38;;
19057;SDS011;9662;53.612;9.914;2022-07-23T10:39:36;78.78;;;72.75;;
19057;SDS011;9662;53.612;9.914;2022-07-23T10:42:09;94.93;;;87.43;;
19057;SDS011;9662;53.612;9.914;2022-07-23T10:44:42;82.25;;;75.72;;
19057;SDS011;9662;53.612;9.914;2022-07-23T10:47:11;85.15;;;78.53;;
19057;SDS011;9662;53.612;9.914;2022-07-23T10:49:49;66.32;;;61.40;;
19057;SDS011;9662;53.612;9.914;2022-07-23T10:52:23;74.88;;;69.00;;
19057;SDS011;9662;53.612;9.914;2022-07-23T10:54:54;69.28;;;64.10;;
19057;SDS011;9662;53.612;9.914;2022-07-23T10:57:23;61.95;;;57.08;;
19057;SDS011;9662;53.612;9.914;2022-07-23T11:00:15;86.90;;;80.15;;
19057;SDS011;9662;53.612;9.914;2022-07-23T11:02:44;57.63;;;53.50;;
19057;SDS011;9662;53.612;9.914;2022-07-23T11:05:13;60.50;;;55.88;;
19057;SDS011;9662;53.612;9.914;2022-07-23T11:10:53;56.57;;;52.47;;
19057;SDS011;9662;53.612;9.914;2022-07-23T11:13:31;45.78;;;42.67;;
19057;SDS011;9662;53.612;9.914;2022-07-23T11:16:06;51.13;;;47.57;;
19057;SDS011;9662;53.612;9.914;2022-07-23T11:24:10;54.92;;;51.05;;
19057;SDS011;9662;53.612;9.914;2022-07-23T11:26:52;53.42;;;49.58;;
19057;SDS011;9662;53.612;9.914;2022-07-23T11:35:22;53.40;;;49.47;;
19057;SDS011;9662;53.612;9.914;2022-07-23T11:37:53;45.92;;;42.75;;
19057;SDS011;9662;53.612;9.914;2022-07-23T11:40:25;41.15;;;38.45;;
19057;SDS011;9662;53.612;9.914;2022-07-23T11:42:56;50.38;;;46.75;;
19057;SDS011;9662;53.612;9.914;2022-07-23T11:45:30;42.60;;;39.55;;
19057;SDS011;9662;53.612;9.914;2022-07-23T11:47:59;55.78;;;51.72;;
19057;SDS011;9662;53.612;9.914;2022-07-23T11:50:32;38.83;;;35.97;;
19057;SDS011;9662;53.612;9.914;2022-07-23T11:53:02;45.60;;;41.90;;
19057;SDS011;9662;53.612;9.914;2022-07-23T11:55:33;43.22;;;40.15;;
19057;SDS011;9662;53.612;9.914;2022-07-23T11:58:05;56.50;;;52.33;;
19057;SDS011;9662;53.612;9.914;2022-07-23T12:00:35;69.57;;;64.27;;
19057;SDS011;9662;53.612;9.914;2022-07-23T12:03:10;39.90;;;37.27;;
19057;SDS011;9662;53.612;9.914;2022-07-23T12:05:41;49.80;;;46.28;;
19057;SDS011;9662;53.612;9.914;2022-07-23T12:08:11;37.25;;;34.78;;
19057;SDS011;9662;53.612;9.914;2022-07-23T12:10:42;54.53;;;50.53;;
19057;SDS011;9662;53.612;9.914;2022-07-23T12:13:13;50.90;;;47.20;;
19057;SDS011;9662;53.612;9.914;2022-07-23T12:15:45;63.63;;;58.80;;
19057;SDS011;9662;53.612;9.914;2022-07-23T12:18:18;62.78;;;58.03;;
19057;SDS011;9662;53.612;9.914;2022-07-23T12:20:51;65.25;;;60.20;;
19057;SDS011;9662;53.612;9.914;2022-07-23T12:23:24;54.90;;;50.95;;
19057;SDS011;9662;53.612;9.914;2022-07-23T12:26:00;82.15;;;75.60;;
19057;SDS011;9662;53.612;9.914;2022-07-23T12:28:36;75.10;;;69.28;;
19057;SDS011;9662;53.612;9.914;2022-07-23T12:31:31;84.65;;;78.03;;
19057;SDS011;9662;53.612;9.914;2022-07-23T12:34:13;95.28;;;87.55;;
19057;SDS011;9662;53.612;9.914;2022-07-23T12:37:29;76.47;;;70.53;;
19057;SDS011;9662;53.612;9.914;2022-07-23T12:40:44;60.05;;;55.50;;
19057;SDS011;9662;53.612;9.914;2022-07-23T12:43:54;62.85;;;58.00;;
19057;SDS011;9662;53.612;9.914;2022-07-23T12:47:04;66.93;;;61.67;;
19057;SDS011;9662;53.612;9.914;2022-07-23T12:53:42;58.10;;;53.70;;
19057;SDS011;9662;53.612;9.914;2022-07-23T12:56:53;89.10;;;81.88;;
19057;SDS011;9662;53.612;9.914;2022-07-23T13:00:07;79.22;;;73.03;;
19057;SDS011;9662;53.612;9.914;2022-07-23T13:03:22;66.47;;;61.20;;
19057;SDS011;9662;53.612;9.914;2022-07-23T13:06:35;79.85;;;73.50;;
19057;SDS011;9662;53.612;9.914;2022-07-23T13:09:49;70.40;;;64.85;;
19057;SDS011;9662;53.612;9.914;2022-07-23T13:13:01;88.13;;;81.15;;
19057;SDS011;9662;53.612;9.914;2022-07-23T13:16:13;65.80;;;60.73;;
19057;SDS011;9662;53.612;9.914;2022-07-23T13:19:26;47.85;;;44.40;;
19057;SDS011;9662;53.612;9.914;2022-07-23T13:22:37;78.63;;;72.07;;
19057;SDS011;9662;53.612;9.914;2022-07-23T13:25:50;39.67;;;36.92;;
19057;SDS011;9662;53.612;9.914;2022-07-23T13:29:02;38.13;;;35.58;;
19057;SDS011;9662;53.612;9.914;2022-07-23T13:32:14;37.50;;;35.05;;
19057;SDS011;9662;53.612;9.914;2022-07-23T13:35:27;41.08;;;38.20;;
19057;SDS011;9662;53.612;9.914;2022-07-23T13:38:39;41.70;;;38.40;;
19057;SDS011;9662;53.612;9.914;2022-07-23T13:41:54;39.45;;;36.55;;
19057;SDS011;9662;53.612;9.914;2022-07-23T13:45:07;32.97;;;30.87;;
19057;SDS011;9662;53.612;9.914;2022-07-23T13:48:21;35.10;;;32.90;;
19057;SDS011;9662;53.612;9.914;2022-07-23T13:50:54;33.97;;;31.65;;
19057;SDS011;9662;53.612;9.914;2022-07-23T13:54:07;47.15;;;43.67;;
19057;SDS011;9662;53.612;9.914;2022-07-23T13:57:22;41.58;;;38.63;;
19057;SDS011;9662;53.612;9.914;2022-07-23T14:00:36;52.15;;;48.25;;
19057;SDS011;9662;53.612;9.914;2022-07-23T14:03:49;60.75;;;56.10;;
19057;SDS011;9662;53.612;9.914;2022-07-23T14:07:02;20.55;;;19.52;;
19057;SDS011;9662;53.612;9.914;2022-07-23T14:10:16;39.67;;;36.90;;
19057;SDS011;9662;53.612;9.914;2022-07-23T14:13:31;37.15;;;34.65;;
19057;SDS011;9662;53.612;9.914;2022-07-23T14:16:38;40.88;;;38.08;;
19057;SDS011;9662;53.612;9.914;2022-07-23T14:19:52;35.55;;;33.15;;
19057;SDS011;9662;53.612;9.914;2022-07-23T14:22:41;40.83;;;38.17;;
19057;SDS011;9662;53.612;9.914;2022-07-23T14:25:55;26.30;;;24.60;;
19057;SDS011;9662;53.612;9.914;2022-07-23T14:29:10;37.60;;;35.00;;
19057;SDS011;9662;53.612;9.914;2022-07-23T14:31:54;33.00;;;30.70;;
19057;SDS011;9662;53.612;9.914;2022-07-23T14:34:59;32.03;;;30.10;;
19057;SDS011;9662;53.612;9.914;2022-07-23T14:37:59;35.58;;;33.28;;
19057;SDS011;9662;53.612;9.914;2022-07-23T14:40:26;34.53;;;32.33;;
19057;SDS011;9662;53.612;9.914;2022-07-23T14:42:58;40.93;;;38.17;;
19057;SDS011;9662;53.612;9.914;2022-07-23T14:45:31;61.95;;;56.97;;
19057;SDS011;9662;53.612;9.914;2022-07-23T14:48:11;44.25;;;41.20;;
19057;SDS011;9662;53.612;9.914;2022-07-23T14:50:38;39.25;;;36.63;;
19057;SDS011;9662;53.612;9.914;2022-07-23T14:53:07;46.25;;;42.92;;
19057;SDS011;9662;53.612;9.914;2022-07-23T14:56:21;39.75;;;36.78;;
19057;SDS011;9662;53.612;9.914;2022-07-23T14:58:56;41.03;;;38.28;;
19057;SDS011;9662;53.612;9.914;2022-07-23T15:02:11;40.90;;;38.15;;
19057;SDS011;9662;53.612;9.914;2022-07-23T15:04:43;40.05;;;37.35;;
19057;SDS011;9662;53.612;9.914;2022-07-23T15:07:10;48.95;;;45.42;;
19057;SDS011;9662;53.612;9.914;2022-07-23T15:09:37;47.15;;;43.92;;
19057;SDS011;9662;53.612;9.914;2022-07-23T15:12:49;44.80;;;41.65;;
19057;SDS011;9662;53.612;9.914;2022-07-23T15:15:19;46.22;;;43.08;;
19057;SDS011;9662;53.612;9.914;2022-07-23T15:17:47;65.55;;;60.63;;
19057;SDS011;9662;53.612;9.914;2022-07-23T15:20:15;68.20;;;63.08;;
19057;SDS011;9662;53.612;9.914;2022-07-23T15:22:42;64.50;;;59.67;;
19057;SDS011;9662;53.612;9.914;2022-07-23T15:25:33;44.43;;;41.33;;
19057;SDS011;9662;53.612;9.914;2022-07-23T15:28:05;38.00;;;35.53;;
19057;SDS011;9662;53.612;9.914;2022-07-23T15:30:34;60.42;;;55.75;;
19057;SDS011;9662;53.612;9.914;2022-07-23T15:33:03;50.67;;;47.05;;
19057;SDS011;9662;53.612;9.914;2022-07-23T15:35:31;60.83;;;56.33;;
19057;SDS011;9662;53.612;9.914;2022-07-23T15:38:13;47.92;;;44.47;;